sensor_id;sensor_type;location;lat;lon;timestamp;P1;durP1;ratioP1;P2;durP2;ratioP2
28862;SDS011;15994;51.796;13.006;2022-08-01T00:01:29;3.50;;;1.90;;
28862;SDS011;15994;51.796;13.006;2022-08-01T00:03:55;4.38;;;1.90;;
28862;SDS011;15994;51.796;13.006;2022-08-01T00:06:22;2.60;;;1.80;;
28862;SDS011;15994;51.796;13.006;2022-08-01T00:08:48;3.72;;;1.75;;
28862;SDS011;15994;51.796;13.006;2022-08-01T00:11:15;2.80;;;1.83;;
28862;SDS011;15994;51.796;13.006;2022-08-01T00:13:41;4.22;;;1.92;;
28862;SDS011;15994;51.796;13.006;2022-08-01T00:16:08;5.60;;;2.28;;
28862;SDS011;15994;51.796;13.006;2022-08-01T00:18:34;3.08;;;2.28;;
28862;SDS011;15994;51.796;13.006;2022-08-01T00:21:02;5.15;;;2.00;;
28862;SDS011;15994;51.796;13.006;2022-08-01T00:23:30;4.15;;;1.90;;
28862;SDS011;15994;51.796;13.006;2022-08-01T00:25:57;3.92;;;2.00;;
28862;SDS011;15994;51.796;13.006;2022-08-01T00:28:23;5.70;;;2.00;;
28862;SDS011;15994;51.796;13.006;2022-08-01T00:30:50;4.03;;;2.22;;
28862;SDS011;15994;51.796;13.006;2022-08-01T00:33:16;2.92;;;1.88;;
28862;SDS011;15994;51.796;13.006;2022-08-01T00:35:43;5.82;;;2.50;;
28862;SDS011;15994;51.796;13.006;2022-08-01T00:38:10;2.90;;;1.98;;
28862;SDS011;15994;51.796;13.006;2022-08-01T00:40:36;3.97;;;2.08;;
28862;SDS011;15994;51.796;13.006;2022-08-01T00:43:03;2.83;;;2.00;;
28862;SDS011;15994;51.796;13.006;2022-08-01T00:45:30;2.83;;;2.13;;
28862;SDS011;15994;51.796;13.006;2022-08-01T00:47:56;3.08;;;2.30;;
28862;SDS011;15994;51.796;13.006;2022-08-01T00:50:23;5.10;;;2.47;;
28862;SDS011;15994;51.796;13.006;2022-08-01T00:52:49;3.78;;;2.22;;
28862;SDS011;15994;51.796;13.006;2022-08-01T00:55:16;5.07;;;2.55;;
28862;SDS011;15994;51.796;13.006;2022-08-01T00:57:45;3.03;;;2.28;;
28862;SDS011;15994;51.796;13.006;2022-08-01T01:00:13;4.13;;;2.20;;
28862;SDS011;15994;51.796;13.006;2022-08-01T01:02:39;3.42;;;2.28;;
28862;SDS011;15994;51.796;13.006;2022-08-01T01:05:06;4.57;;;2.30;;
28862;SDS011;15994;51.796;13.006;2022-08-01T01:10:40;3.42;;;2.22;;
28862;SDS011;15994;51.796;13.006;2022-08-01T01:13:20;5.97;;;2.17;;
28862;SDS011;15994;51.796;13.006;2022-08-01T01:15:59;4.07;;;2.30;;
28862;SDS011;15994;51.796;13.006;2022-08-01T01:18:34;4.00;;;2.67;;
28862;SDS011;15994;51.796;13.006;2022-08-01T01:21:07;4.35;;;2.40;;
28862;SDS011;15994;51.796;13.006;2022-08-01T01:23:40;5.55;;;2.30;;
28862;SDS011;15994;51.796;13.006;2022-08-01T01:26:38;4.55;;;2.35;;
28862;SDS011;15994;51.796;13.006;2022-08-01T01:29:23;5.80;;;2.45;;
28862;SDS011;15994;51.796;13.006;2022-08-01T01:34:35;8.20;;;2.70;;
28862;SDS011;15994;51.796;13.006;2022-08-01T01:37:04;3.35;;;2.45;;
28862;SDS011;15994;51.796;13.006;2022-08-01T01:39:34;4.82;;;2.42;;
28862;SDS011;15994;51.796;13.006;2022-08-01T01:42:04;6.78;;;2.47;;
28862;SDS011;15994;51.796;13.006;2022-08-01T01:44:32;5.32;;;2.60;;
28862;SDS011;15994;51.796;13.006;2022-08-01T01:47:01;4.72;;;2.40;;
28862;SDS011;15994;51.796;13.006;2022-08-01T01:49:28;7.00;;;2.55;;
28862;SDS011;15994;51.796;13.006;2022-08-01T01:51:57;5.55;;;2.70;;
28862;SDS011;15994;51.796;13.006;2022-08-01T01:54:28;4.82;;;3.00;;
28862;SDS011;15994;51.796;13.006;2022-08-01T01:56:58;5.97;;;2.85;;
28862;SDS011;15994;51.796;13.006;2022-08-01T01:59:27;6.07;;;2.83;;
28862;SDS011;15994;51.796;13.006;2022-08-01T02:01:56;8.70;;;3.10;;
28862;SDS011;15994;51.796;13.006;2022-08-01T02:04:25;5.60;;;3.00;;
28862;SDS011;15994;51.796;13.006;2022-08-01T02:06:54;5.68;;;2.75;;
28862;SDS011;15994;51.796;13.006;2022-08-01T02:09:21;4.65;;;2.85;;
28862;SDS011;15994;51.796;13.006;2022-08-01T02:11:50;5.65;;;3.00;;
28862;SDS011;15994;51.796;13.006;2022-08-01T02:14:18;6.00;;;3.00;;
28862;SDS011;15994;51.796;13.006;2022-08-01T02:16:49;5.38;;;3.00;;
28862;SDS011;15994;51.796;13.006;2022-08-01T02:19:16;6.80;;;3.30;;
28862;SDS011;15994;51.796;13.006;2022-08-01T02:22:00;4.63;;;2.97;;
28862;SDS011;15994;51.796;13.006;2022-08-01T02:24:35;5.28;;;2.95;;
28862;SDS011;15994;51.796;13.006;2022-08-01T02:27:09;6.28;;;2.95;;
28862;SDS011;15994;51.796;13.006;2022-08-01T02:29:53;6.78;;;3.00;;
28862;SDS011;15994;51.796;13.006;2022-08-01T02:32:31;5.78;;;3.00;;
28862;SDS011;15994;51.796;13.006;2022-08-01T02:35:03;7.05;;;2.90;;
28862;SDS011;15994;51.796;13.006;2022-08-01T02:37:33;5.05;;;2.80;;
28862;SDS011;15994;51.796;13.006;2022-08-01T02:40:02;4.75;;;3.20;;
28862;SDS011;15994;51.796;13.006;2022-08-01T02:42:32;6.07;;;3.40;;
28862;SDS011;15994;51.796;13.006;2022-08-01T02:45:02;4.90;;;2.78;;
28862;SDS011;15994;51.796;13.006;2022-08-01T02:47:33;5.55;;;3.00;;
28862;SDS011;15994;51.796;13.006;2022-08-01T02:50:02;4.88;;;2.92;;
28862;SDS011;15994;51.796;13.006;2022-08-01T02:52:29;3.80;;;3.13;;
28862;SDS011;15994;51.796;13.006;2022-08-01T02:54:57;4.85;;;3.20;;
28862;SDS011;15994;51.796;13.006;2022-08-01T02:57:25;5.57;;;3.38;;
28862;SDS011;15994;51.796;13.006;2022-08-01T02:59:53;4.13;;;3.00;;
28862;SDS011;15994;51.796;13.006;2022-08-01T03:02:21;6.00;;;3.78;;
28862;SDS011;15994;51.796;13.006;2022-08-01T03:04:49;5.95;;;3.17;;
28862;SDS011;15994;51.796;13.006;2022-08-01T03:07:17;6.63;;;3.15;;
28862;SDS011;15994;51.796;13.006;2022-08-01T03:09:45;4.28;;;3.10;;
28862;SDS011;15994;51.796;13.006;2022-08-01T03:12:17;5.00;;;3.60;;
28862;SDS011;15994;51.796;13.006;2022-08-01T03:14:47;3.85;;;3.15;;
28862;SDS011;15994;51.796;13.006;2022-08-01T03:17:18;6.22;;;3.53;;
28862;SDS011;15994;51.796;13.006;2022-08-01T03:19:46;7.20;;;3.78;;
28862;SDS011;15994;51.796;13.006;2022-08-01T03:22:15;7.20;;;3.78;;
28862;SDS011;15994;51.796;13.006;2022-08-01T03:24:43;5.63;;;3.40;;
28862;SDS011;15994;51.796;13.006;2022-08-01T03:27:11;6.43;;;3.53;;
28862;SDS011;15994;51.796;13.006;2022-08-01T03:29:40;4.43;;;3.70;;
28862;SDS011;15994;51.796;13.006;2022-08-01T03:32:09;5.35;;;3.10;;
28862;SDS011;15994;51.796;13.006;2022-08-01T03:34:37;6.05;;;3.72;;
28862;SDS011;15994;51.796;13.006;2022-08-01T03:39:37;6.28;;;3.67;;
28862;SDS011;15994;51.796;13.006;2022-08-01T03:42:12;7.40;;;3.55;;
28862;SDS011;15994;51.796;13.006;2022-08-01T03:44:41;5.32;;;3.60;;
28862;SDS011;15994;51.796;13.006;2022-08-01T03:47:22;4.15;;;3.50;;
28862;SDS011;15994;51.796;13.006;2022-08-01T03:49:55;5.07;;;3.58;;
28862;SDS011;15994;51.796;13.006;2022-08-01T03:52:24;3.97;;;3.20;;
28862;SDS011;15994;51.796;13.006;2022-08-01T03:54:53;5.60;;;3.63;;
28862;SDS011;15994;51.796;13.006;2022-08-01T03:57:22;5.90;;;3.83;;
28862;SDS011;15994;51.796;13.006;2022-08-01T03:59:50;6.20;;;3.80;;
28862;SDS011;15994;51.796;13.006;2022-08-01T04:02:18;5.82;;;3.88;;
28862;SDS011;15994;51.796;13.006;2022-08-01T04:04:45;5.40;;;3.42;;
28862;SDS011;15994;51.796;13.006;2022-08-01T04:07:22;7.82;;;3.22;;
28862;SDS011;15994;51.796;13.006;2022-08-01T04:10:00;6.15;;;3.60;;
28862;SDS011;15994;51.796;13.006;2022-08-01T04:12:27;5.25;;;3.80;;
28862;SDS011;15994;51.796;13.006;2022-08-01T04:14:53;4.43;;;3.50;;
28862;SDS011;15994;51.796;13.006;2022-08-01T04:17:20;5.18;;;3.20;;
28862;SDS011;15994;51.796;13.006;2022-08-01T04:19:46;8.68;;;3.53;;
28862;SDS011;15994;51.796;13.006;2022-08-01T04:22:13;6.43;;;3.55;;
28862;SDS011;15994;51.796;13.006;2022-08-01T04:24:41;4.47;;;3.75;;
28862;SDS011;15994;51.796;13.006;2022-08-01T04:27:13;7.05;;;3.58;;
28862;SDS011;15994;51.796;13.006;2022-08-01T04:29:45;5.32;;;3.80;;
28862;SDS011;15994;51.796;13.006;2022-08-01T04:32:15;5.65;;;3.70;;
28862;SDS011;15994;51.796;13.006;2022-08-01T04:34:42;4.97;;;3.50;;
28862;SDS011;15994;51.796;13.006;2022-08-01T04:37:12;4.00;;;3.58;;
28862;SDS011;15994;51.796;13.006;2022-08-01T04:39:41;4.15;;;3.67;;
28862;SDS011;15994;51.796;13.006;2022-08-01T04:42:09;4.70;;;3.50;;
28862;SDS011;15994;51.796;13.006;2022-08-01T04:44:37;3.83;;;3.40;;
28862;SDS011;15994;51.796;13.006;2022-08-01T04:47:03;4.78;;;3.45;;
28862;SDS011;15994;51.796;13.006;2022-08-01T04:49:33;4.30;;;3.63;;
28862;SDS011;15994;51.796;13.006;2022-08-01T04:52:00;5.68;;;4.10;;
28862;SDS011;15994;51.796;13.006;2022-08-01T04:54:28;5.85;;;3.83;;
28862;SDS011;15994;51.796;13.006;2022-08-01T04:56:58;4.00;;;3.50;;
28862;SDS011;15994;51.796;13.006;2022-08-01T04:59:28;4.65;;;3.85;;
28862;SDS011;15994;51.796;13.006;2022-08-01T05:02:08;7.80;;;3.97;;
28862;SDS011;15994;51.796;13.006;2022-08-01T05:04:37;5.50;;;3.80;;
28862;SDS011;15994;51.796;13.006;2022-08-01T05:07:05;6.82;;;3.63;;
28862;SDS011;15994;51.796;13.006;2022-08-01T05:09:32;6.43;;;3.85;;
28862;SDS011;15994;51.796;13.006;2022-08-01T05:11:59;6.50;;;4.10;;
28862;SDS011;15994;51.796;13.006;2022-08-01T05:14:27;4.35;;;3.40;;
28862;SDS011;15994;51.796;13.006;2022-08-01T05:16:56;4.55;;;3.53;;
28862;SDS011;15994;51.796;13.006;2022-08-01T05:19:24;6.80;;;4.28;;
28862;SDS011;15994;51.796;13.006;2022-08-01T05:21:51;5.25;;;3.67;;
28862;SDS011;15994;51.796;13.006;2022-08-01T05:24:17;7.70;;;3.60;;
28862;SDS011;15994;51.796;13.006;2022-08-01T05:26:44;5.30;;;3.38;;
28862;SDS011;15994;51.796;13.006;2022-08-01T05:29:10;5.22;;;3.40;;
28862;SDS011;15994;51.796;13.006;2022-08-01T05:31:37;4.40;;;3.22;;
28862;SDS011;15994;51.796;13.006;2022-08-01T05:34:04;3.75;;;3.00;;
28862;SDS011;15994;51.796;13.006;2022-08-01T05:36:30;3.92;;;2.78;;
28862;SDS011;15994;51.796;13.006;2022-08-01T05:38:57;5.85;;;3.15;;
28862;SDS011;15994;51.796;13.006;2022-08-01T05:41:23;3.83;;;3.35;;
28862;SDS011;15994;51.796;13.006;2022-08-01T05:43:50;4.47;;;3.20;;
28862;SDS011;15994;51.796;13.006;2022-08-01T05:46:16;4.78;;;3.15;;
28862;SDS011;15994;51.796;13.006;2022-08-01T05:48:43;4.32;;;3.05;;
28862;SDS011;15994;51.796;13.006;2022-08-01T05:51:09;4.22;;;3.05;;
28862;SDS011;15994;51.796;13.006;2022-08-01T05:53:36;4.70;;;3.40;;
28862;SDS011;15994;51.796;13.006;2022-08-01T05:56:02;3.28;;;2.90;;
28862;SDS011;15994;51.796;13.006;2022-08-01T05:58:29;6.00;;;2.95;;
28862;SDS011;15994;51.796;13.006;2022-08-01T06:00:56;3.70;;;2.78;;
28862;SDS011;15994;51.796;13.006;2022-08-01T06:03:23;3.58;;;2.90;;
28862;SDS011;15994;51.796;13.006;2022-08-01T06:05:53;4.68;;;3.40;;
28862;SDS011;15994;51.796;13.006;2022-08-01T06:08:19;3.67;;;3.03;;
28862;SDS011;15994;51.796;13.006;2022-08-01T06:10:46;6.20;;;3.10;;
28862;SDS011;15994;51.796;13.006;2022-08-01T06:13:13;3.97;;;3.13;;
28862;SDS011;15994;51.796;13.006;2022-08-01T06:15:39;3.90;;;2.60;;
28862;SDS011;15994;51.796;13.006;2022-08-01T06:18:06;4.20;;;2.78;;
28862;SDS011;15994;51.796;13.006;2022-08-01T06:20:32;3.85;;;2.58;;
28862;SDS011;15994;51.796;13.006;2022-08-01T06:22:59;4.25;;;2.58;;
28862;SDS011;15994;51.796;13.006;2022-08-01T06:25:25;3.97;;;2.45;;
28862;SDS011;15994;51.796;13.006;2022-08-01T06:27:52;2.78;;;2.20;;
28862;SDS011;15994;51.796;13.006;2022-08-01T06:30:19;3.60;;;2.40;;
28862;SDS011;15994;51.796;13.006;2022-08-01T06:32:46;5.18;;;2.28;;
28862;SDS011;15994;51.796;13.006;2022-08-01T06:35:13;5.05;;;2.47;;
28862;SDS011;15994;51.796;13.006;2022-08-01T06:37:40;3.33;;;2.20;;
28862;SDS011;15994;51.796;13.006;2022-08-01T06:40:08;2.95;;;2.40;;
28862;SDS011;15994;51.796;13.006;2022-08-01T06:42:35;3.50;;;2.45;;
28862;SDS011;15994;51.796;13.006;2022-08-01T06:45:06;4.40;;;2.50;;
28862;SDS011;15994;51.796;13.006;2022-08-01T06:47:34;5.25;;;2.70;;
28862;SDS011;15994;51.796;13.006;2022-08-01T06:50:01;3.53;;;2.38;;
28862;SDS011;15994;51.796;13.006;2022-08-01T06:52:29;3.30;;;2.30;;
28862;SDS011;15994;51.796;13.006;2022-08-01T06:54:56;4.25;;;2.38;;
28862;SDS011;15994;51.796;13.006;2022-08-01T06:57:22;3.58;;;2.17;;
28862;SDS011;15994;51.796;13.006;2022-08-01T06:59:49;10.68;;;2.70;;
28862;SDS011;15994;51.796;13.006;2022-08-01T07:02:15;15.82;;;3.10;;
28862;SDS011;15994;51.796;13.006;2022-08-01T07:04:42;9.02;;;2.45;;
28862;SDS011;15994;51.796;13.006;2022-08-01T07:07:09;7.90;;;2.65;;
28862;SDS011;15994;51.796;13.006;2022-08-01T07:09:35;16.45;;;2.88;;
28862;SDS011;15994;51.796;13.006;2022-08-01T07:12:05;11.93;;;3.25;;
28862;SDS011;15994;51.796;13.006;2022-08-01T07:14:32;5.82;;;3.17;;
28862;SDS011;15994;51.796;13.006;2022-08-01T07:16:59;5.28;;;2.60;;
28862;SDS011;15994;51.796;13.006;2022-08-01T07:19:25;5.03;;;2.80;;
28862;SDS011;15994;51.796;13.006;2022-08-01T07:21:52;9.73;;;2.80;;
28862;SDS011;15994;51.796;13.006;2022-08-01T07:24:19;25.65;;;3.03;;
28862;SDS011;15994;51.796;13.006;2022-08-01T07:26:46;9.90;;;2.28;;
28862;SDS011;15994;51.796;13.006;2022-08-01T07:29:14;23.08;;;3.53;;
28862;SDS011;15994;51.796;13.006;2022-08-01T07:31:41;3.97;;;1.95;;
28862;SDS011;15994;51.796;13.006;2022-08-01T07:34:08;5.57;;;2.30;;
28862;SDS011;15994;51.796;13.006;2022-08-01T07:36:34;7.05;;;2.22;;
28862;SDS011;15994;51.796;13.006;2022-08-01T07:39:01;4.22;;;2.03;;
28862;SDS011;15994;51.796;13.006;2022-08-01T07:41:28;6.82;;;2.03;;
28862;SDS011;15994;51.796;13.006;2022-08-01T07:43:54;5.90;;;1.50;;
28862;SDS011;15994;51.796;13.006;2022-08-01T07:46:21;5.68;;;1.77;;
28862;SDS011;15994;51.796;13.006;2022-08-01T07:48:47;2.35;;;1.40;;
28862;SDS011;15994;51.796;13.006;2022-08-01T07:51:14;2.90;;;1.55;;
28862;SDS011;15994;51.796;13.006;2022-08-01T07:53:40;2.80;;;1.50;;
28862;SDS011;15994;51.796;13.006;2022-08-01T07:56:07;4.97;;;1.60;;
28862;SDS011;15994;51.796;13.006;2022-08-01T07:58:34;3.45;;;1.40;;
28862;SDS011;15994;51.796;13.006;2022-08-01T08:01:01;3.28;;;1.48;;
28862;SDS011;15994;51.796;13.006;2022-08-01T08:03:28;1.75;;;1.30;;
28862;SDS011;15994;51.796;13.006;2022-08-01T08:05:55;1.88;;;1.38;;
28862;SDS011;15994;51.796;13.006;2022-08-01T08:08:22;3.28;;;1.65;;
28862;SDS011;15994;51.796;13.006;2022-08-01T08:10:49;2.25;;;1.10;;
28862;SDS011;15994;51.796;13.006;2022-08-01T08:13:15;2.90;;;1.23;;
28862;SDS011;15994;51.796;13.006;2022-08-01T08:15:43;2.63;;;1.10;;
28862;SDS011;15994;51.796;13.006;2022-08-01T08:18:09;2.65;;;1.10;;
28862;SDS011;15994;51.796;13.006;2022-08-01T08:20:36;1.70;;;0.93;;
28862;SDS011;15994;51.796;13.006;2022-08-01T08:23:02;2.85;;;0.80;;
28862;SDS011;15994;51.796;13.006;2022-08-01T08:25:49;2.08;;;0.50;;
28862;SDS011;15994;51.796;13.006;2022-08-01T08:28:16;1.30;;;0.28;;
28862;SDS011;15994;51.796;13.006;2022-08-01T08:30:42;1.55;;;0.40;;
28862;SDS011;15994;51.796;13.006;2022-08-01T08:33:09;1.73;;;0.57;;
28862;SDS011;15994;51.796;13.006;2022-08-01T08:35:35;2.83;;;0.60;;
28862;SDS011;15994;51.796;13.006;2022-08-01T08:38:04;1.38;;;0.70;;
28862;SDS011;15994;51.796;13.006;2022-08-01T08:40:31;1.92;;;0.88;;
28862;SDS011;15994;51.796;13.006;2022-08-01T08:43:00;7.82;;;1.23;;
28862;SDS011;15994;51.796;13.006;2022-08-01T08:45:30;4.32;;;0.90;;
28862;SDS011;15994;51.796;13.006;2022-08-01T08:47:57;3.00;;;1.20;;
28862;SDS011;15994;51.796;13.006;2022-08-01T08:50:24;1.58;;;1.10;;
28862;SDS011;15994;51.796;13.006;2022-08-01T08:52:55;3.05;;;1.17;;
28862;SDS011;15994;51.796;13.006;2022-08-01T08:55:22;2.45;;;1.60;;
28862;SDS011;15994;51.796;13.006;2022-08-01T08:57:49;3.53;;;1.65;;
28862;SDS011;15994;51.796;13.006;2022-08-01T09:00:17;2.38;;;1.85;;
28862;SDS011;15994;51.796;13.006;2022-08-01T09:02:45;3.90;;;1.83;;
28862;SDS011;15994;51.796;13.006;2022-08-01T09:05:13;2.72;;;1.65;;
28862;SDS011;15994;51.796;13.006;2022-08-01T09:07:41;2.35;;;1.75;;
28862;SDS011;15994;51.796;13.006;2022-08-01T09:10:08;3.85;;;2.13;;
28862;SDS011;15994;51.796;13.006;2022-08-01T09:12:36;3.30;;;1.80;;
28862;SDS011;15994;51.796;13.006;2022-08-01T09:15:03;4.28;;;2.25;;
28862;SDS011;15994;51.796;13.006;2022-08-01T09:17:38;2.70;;;2.33;;
28862;SDS011;15994;51.796;13.006;2022-08-01T09:20:06;2.75;;;2.20;;
28862;SDS011;15994;51.796;13.006;2022-08-01T09:22:33;3.53;;;1.98;;
28862;SDS011;15994;51.796;13.006;2022-08-01T09:27:34;4.20;;;2.20;;
28862;SDS011;15994;51.796;13.006;2022-08-01T09:30:13;3.67;;;2.00;;
28862;SDS011;15994;51.796;13.006;2022-08-01T09:32:58;3.45;;;2.10;;
28862;SDS011;15994;51.796;13.006;2022-08-01T09:35:27;2.28;;;1.80;;
28862;SDS011;15994;51.796;13.006;2022-08-01T09:38:11;2.63;;;1.77;;
28862;SDS011;15994;51.796;13.006;2022-08-01T09:43:11;2.92;;;2.53;;
28862;SDS011;15994;51.796;13.006;2022-08-01T09:45:38;3.78;;;2.40;;
28862;SDS011;15994;51.796;13.006;2022-08-01T09:48:05;3.50;;;1.98;;
28862;SDS011;15994;51.796;13.006;2022-08-01T09:50:43;2.90;;;2.00;;
28862;SDS011;15994;51.796;13.006;2022-08-01T09:53:11;2.92;;;2.30;;
28862;SDS011;15994;51.796;13.006;2022-08-01T09:55:39;3.47;;;2.63;;
28862;SDS011;15994;51.796;13.006;2022-08-01T09:58:07;3.65;;;2.00;;
28862;SDS011;15994;51.796;13.006;2022-08-01T10:00:36;2.95;;;2.10;;
28862;SDS011;15994;51.796;13.006;2022-08-01T10:03:23;3.22;;;1.85;;
28862;SDS011;15994;51.796;13.006;2022-08-01T10:05:51;3.78;;;1.70;;
28862;SDS011;15994;51.796;13.006;2022-08-01T10:08:19;2.42;;;1.30;;
28862;SDS011;15994;51.796;13.006;2022-08-01T10:11:07;2.50;;;1.40;;
28862;SDS011;15994;51.796;13.006;2022-08-01T10:13:35;1.83;;;1.23;;
28862;SDS011;15994;51.796;13.006;2022-08-01T10:16:01;1.75;;;1.15;;
28862;SDS011;15994;51.796;13.006;2022-08-01T10:18:29;1.73;;;1.20;;
28862;SDS011;15994;51.796;13.006;2022-08-01T10:20:58;1.83;;;1.30;;
28862;SDS011;15994;51.796;13.006;2022-08-01T10:23:26;1.85;;;1.17;;
28862;SDS011;15994;51.796;13.006;2022-08-01T10:25:53;1.30;;;1.10;;
28862;SDS011;15994;51.796;13.006;2022-08-01T10:28:20;2.45;;;1.23;;
28862;SDS011;15994;51.796;13.006;2022-08-01T10:30:48;1.33;;;0.90;;
28862;SDS011;15994;51.796;13.006;2022-08-01T10:33:15;2.03;;;1.00;;
28862;SDS011;15994;51.796;13.006;2022-08-01T10:35:45;1.50;;;0.80;;
28862;SDS011;15994;51.796;13.006;2022-08-01T10:38:11;1.67;;;0.85;;
28862;SDS011;15994;51.796;13.006;2022-08-01T10:40:39;1.10;;;0.85;;
28862;SDS011;15994;51.796;13.006;2022-08-01T10:43:08;1.38;;;0.98;;
28862;SDS011;15994;51.796;13.006;2022-08-01T10:45:36;1.83;;;0.90;;
28862;SDS011;15994;51.796;13.006;2022-08-01T10:48:04;2.20;;;0.93;;
28862;SDS011;15994;51.796;13.006;2022-08-01T10:50:58;5.50;;;1.13;;
28862;SDS011;15994;51.796;13.006;2022-08-01T10:53:25;2.05;;;0.90;;
28862;SDS011;15994;51.796;13.006;2022-08-01T10:58:23;1.90;;;1.10;;
28862;SDS011;15994;51.796;13.006;2022-08-01T11:04:05;1.58;;;1.00;;
28862;SDS011;15994;51.796;13.006;2022-08-01T11:09:02;3.33;;;0.75;;
28862;SDS011;15994;51.796;13.006;2022-08-01T11:11:32;2.20;;;0.80;;
28862;SDS011;15994;51.796;13.006;2022-08-01T11:14:18;1.50;;;0.60;;
28862;SDS011;15994;51.796;13.006;2022-08-01T11:16:45;0.45;;;0.35;;
28862;SDS011;15994;51.796;13.006;2022-08-01T11:19:11;2.08;;;0.52;;
28862;SDS011;15994;51.796;13.006;2022-08-01T11:24:54;1.88;;;0.68;;
28862;SDS011;15994;51.796;13.006;2022-08-01T11:27:17;2.38;;;0.57;;
28862;SDS011;15994;51.796;13.006;2022-08-01T11:32:47;1.20;;;0.50;;
28862;SDS011;15994;51.796;13.006;2022-08-01T11:35:15;0.93;;;0.70;;
28862;SDS011;15994;51.796;13.006;2022-08-01T11:37:42;1.65;;;0.60;;
28862;SDS011;15994;51.796;13.006;2022-08-01T11:40:22;0.77;;;0.63;;
28862;SDS011;15994;51.796;13.006;2022-08-01T11:42:51;1.65;;;0.52;;
28862;SDS011;15994;51.796;13.006;2022-08-01T11:48:27;1.38;;;0.60;;
28862;SDS011;15994;51.796;13.006;2022-08-01T11:50:55;2.03;;;0.60;;
28862;SDS011;15994;51.796;13.006;2022-08-01T11:53:22;0.85;;;0.60;;
28862;SDS011;15994;51.796;13.006;2022-08-01T11:55:49;0.85;;;0.60;;
28862;SDS011;15994;51.796;13.006;2022-08-01T11:58:21;1.73;;;0.60;;
28862;SDS011;15994;51.796;13.006;2022-08-01T12:00:50;0.60;;;0.57;;
28862;SDS011;15994;51.796;13.006;2022-08-01T12:03:22;1.23;;;0.50;;
28862;SDS011;15994;51.796;13.006;2022-08-01T12:05:52;0.47;;;0.47;;
28862;SDS011;15994;51.796;13.006;2022-08-01T12:08:26;0.70;;;0.50;;
28862;SDS011;15994;51.796;13.006;2022-08-01T12:10:57;0.65;;;0.50;;
28862;SDS011;15994;51.796;13.006;2022-08-01T12:13:25;1.67;;;0.50;;
28862;SDS011;15994;51.796;13.006;2022-08-01T12:15:53;1.48;;;0.43;;
28862;SDS011;15994;51.796;13.006;2022-08-01T12:18:21;0.98;;;0.43;;
28862;SDS011;15994;51.796;13.006;2022-08-01T12:20:47;0.45;;;0.40;;
28862;SDS011;15994;51.796;13.006;2022-08-01T12:23:14;0.50;;;0.50;;
28862;SDS011;15994;51.796;13.006;2022-08-01T12:25:42;0.77;;;0.60;;
28862;SDS011;15994;51.796;13.006;2022-08-01T12:28:11;0.95;;;0.40;;
28862;SDS011;15994;51.796;13.006;2022-08-01T12:30:38;1.17;;;0.30;;
28862;SDS011;15994;51.796;13.006;2022-08-01T12:33:09;0.68;;;0.40;;
28862;SDS011;15994;51.796;13.006;2022-08-01T12:35:37;0.93;;;0.50;;
28862;SDS011;15994;51.796;13.006;2022-08-01T12:38:09;0.80;;;0.43;;
28862;SDS011;15994;51.796;13.006;2022-08-01T12:40:45;1.27;;;0.55;;
28862;SDS011;15994;51.796;13.006;2022-08-01T12:43:19;3.35;;;0.57;;
28862;SDS011;15994;51.796;13.006;2022-08-01T12:45:49;1.27;;;0.50;;
28862;SDS011;15994;51.796;13.006;2022-08-01T12:48:17;0.57;;;0.40;;
28862;SDS011;15994;51.796;13.006;2022-08-01T12:50:47;0.52;;;0.35;;
28862;SDS011;15994;51.796;13.006;2022-08-01T12:53:15;0.50;;;0.40;;
28862;SDS011;15994;51.796;13.006;2022-08-01T12:55:44;0.85;;;0.47;;
28862;SDS011;15994;51.796;13.006;2022-08-01T12:58:11;1.13;;;0.40;;
28862;SDS011;15994;51.796;13.006;2022-08-01T13:00:40;0.30;;;0.30;;
28862;SDS011;15994;51.796;13.006;2022-08-01T13:03:10;2.00;;;0.30;;
28862;SDS011;15994;51.796;13.006;2022-08-01T13:08:09;0.85;;;0.40;;
28862;SDS011;15994;51.796;13.006;2022-08-01T13:10:41;1.27;;;0.30;;
28862;SDS011;15994;51.796;13.006;2022-08-01T13:13:09;0.43;;;0.40;;
28862;SDS011;15994;51.796;13.006;2022-08-01T13:15:37;1.00;;;0.50;;
28862;SDS011;15994;51.796;13.006;2022-08-01T13:23:39;0.98;;;0.28;;
28862;SDS011;15994;51.796;13.006;2022-08-01T13:26:06;0.45;;;0.30;;
28862;SDS011;15994;51.796;13.006;2022-08-01T13:28:33;0.30;;;0.30;;
28862;SDS011;15994;51.796;13.006;2022-08-01T13:31:03;0.43;;;0.30;;
28862;SDS011;15994;51.796;13.006;2022-08-01T13:33:45;0.75;;;0.32;;
28862;SDS011;15994;51.796;13.006;2022-08-01T13:36:13;0.45;;;0.28;;
28862;SDS011;15994;51.796;13.006;2022-08-01T13:38:40;0.60;;;0.30;;
28862;SDS011;15994;51.796;13.006;2022-08-01T13:41:25;1.92;;;0.30;;
28862;SDS011;15994;51.796;13.006;2022-08-01T13:43:52;2.17;;;0.40;;
28862;SDS011;15994;51.796;13.006;2022-08-01T13:46:19;0.75;;;0.43;;
28862;SDS011;15994;51.796;13.006;2022-08-01T13:48:46;0.30;;;0.30;;
28862;SDS011;15994;51.796;13.006;2022-08-01T13:51:12;0.80;;;0.50;;
28862;SDS011;15994;51.796;13.006;2022-08-01T13:53:39;0.80;;;0.40;;
28862;SDS011;15994;51.796;13.006;2022-08-01T13:56:06;1.70;;;0.38;;
28862;SDS011;15994;51.796;13.006;2022-08-01T13:58:32;1.17;;;0.50;;
28862;SDS011;15994;51.796;13.006;2022-08-01T14:00:59;3.00;;;0.40;;
28862;SDS011;15994;51.796;13.006;2022-08-01T14:03:25;0.95;;;0.30;;
28862;SDS011;15994;51.796;13.006;2022-08-01T14:05:52;0.80;;;0.40;;
28862;SDS011;15994;51.796;13.006;2022-08-01T14:08:18;0.30;;;0.30;;
28862;SDS011;15994;51.796;13.006;2022-08-01T14:10:45;0.43;;;0.30;;
28862;SDS011;15994;51.796;13.006;2022-08-01T14:13:11;0.65;;;0.40;;
28862;SDS011;15994;51.796;13.006;2022-08-01T14:15:38;1.30;;;0.40;;
28862;SDS011;15994;51.796;13.006;2022-08-01T14:18:08;0.47;;;0.30;;
28862;SDS011;15994;51.796;13.006;2022-08-01T14:20:36;2.05;;;0.50;;
28862;SDS011;15994;51.796;13.006;2022-08-01T14:23:04;0.50;;;0.30;;
28862;SDS011;15994;51.796;13.006;2022-08-01T14:25:31;0.60;;;0.40;;
28862;SDS011;15994;51.796;13.006;2022-08-01T14:27:58;1.20;;;0.32;;
28862;SDS011;15994;51.796;13.006;2022-08-01T14:30:24;0.50;;;0.40;;
28862;SDS011;15994;51.796;13.006;2022-08-01T14:32:51;0.95;;;0.50;;
28862;SDS011;15994;51.796;13.006;2022-08-01T14:35:17;0.80;;;0.40;;
28862;SDS011;15994;51.796;13.006;2022-08-01T14:37:44;1.80;;;0.30;;
28862;SDS011;15994;51.796;13.006;2022-08-01T14:40:10;0.43;;;0.30;;
28862;SDS011;15994;51.796;13.006;2022-08-01T14:42:37;2.05;;;0.40;;
28862;SDS011;15994;51.796;13.006;2022-08-01T14:45:05;3.42;;;0.55;;
28862;SDS011;15994;51.796;13.006;2022-08-01T14:47:35;1.13;;;0.50;;
28862;SDS011;15994;51.796;13.006;2022-08-01T14:50:06;0.77;;;0.40;;
28862;SDS011;15994;51.796;13.006;2022-08-01T14:52:35;3.30;;;0.40;;
28862;SDS011;15994;51.796;13.006;2022-08-01T14:55:03;0.40;;;0.30;;
28862;SDS011;15994;51.796;13.006;2022-08-01T14:57:31;0.40;;;0.28;;
28862;SDS011;15994;51.796;13.006;2022-08-01T14:59:59;0.65;;;0.30;;
28862;SDS011;15994;51.796;13.006;2022-08-01T15:02:25;0.82;;;0.40;;
28862;SDS011;15994;51.796;13.006;2022-08-01T15:04:52;0.98;;;0.35;;
28862;SDS011;15994;51.796;13.006;2022-08-01T15:07:18;2.10;;;0.40;;
28862;SDS011;15994;51.796;13.006;2022-08-01T15:09:45;0.65;;;0.40;;
28862;SDS011;15994;51.796;13.006;2022-08-01T15:12:12;0.47;;;0.30;;
28862;SDS011;15994;51.796;13.006;2022-08-01T15:14:39;0.77;;;0.30;;
28862;SDS011;15994;51.796;13.006;2022-08-01T15:19:46;0.70;;;0.40;;
28862;SDS011;15994;51.796;13.006;2022-08-01T15:22:13;0.82;;;0.40;;
28862;SDS011;15994;51.796;13.006;2022-08-01T15:24:40;1.75;;;0.40;;